createdAt,value
2022-10-14T00:02:55.792Z,9.91
2022-10-14T00:06:04.695Z,9.83
2022-10-14T00:09:12.291Z,9.77
2022-10-14T00:12:18.379Z,9.74
2022-10-14T00:15:24.443Z,9.74
2022-10-14T00:18:30.679Z,9.74
2022-10-14T00:21:35.941Z,9.76
2022-10-14T00:24:41.912Z,9.75
2022-10-14T00:27:47.976Z,9.79
2022-10-14T00:30:58.372Z,9.82
2022-10-14T00:34:04.630Z,9.85
2022-10-14T00:37:10.963Z,9.83
2022-10-14T00:40:15.574Z,9.83
2022-10-14T00:43:22.836Z,9.81
2022-10-14T00:46:31.378Z,9.85
2022-10-14T00:49:42.204Z,9.89
2022-10-14T00:52:48.483Z,9.90
2022-10-14T00:55:54.690Z,9.87
2022-10-14T00:59:01.928Z,9.88
2022-10-14T01:02:08.343Z,9.89
2022-10-14T01:05:15.282Z,9.91
2022-10-14T01:08:29.673Z,9.87
2022-10-14T01:11:41.927Z,9.90
2022-10-14T01:14:54.968Z,9.93
2022-10-14T01:18:12.827Z,9.95
2022-10-14T01:21:26.810Z,9.96
2022-10-14T01:24:45.356Z,9.98
2022-10-14T01:28:16.385Z,9.98
2022-10-14T01:31:25.000Z,10.00
2022-10-14T01:34:37.726Z,10.00
2022-10-14T01:37:51.130Z,9.99
2022-10-14T01:41:04.489Z,9.98
2022-10-14T01:44:13.402Z,9.96
2022-10-14T01:47:22.832Z,9.95
2022-10-14T01:50:32.702Z,9.96
2022-10-14T01:53:43.670Z,9.97
2022-10-14T01:56:51.782Z,9.97
2022-10-14T01:59:59.084Z,9.97
2022-10-14T02:03:05.386Z,9.96
2022-10-14T02:06:13.120Z,9.98
2022-10-14T02:09:28.040Z,10.00
2022-10-14T02:12:46.152Z,10.05
2022-10-14T02:16:05.220Z,10.11
2022-10-14T02:19:25.937Z,10.14
2022-10-14T02:22:38.955Z,10.18
2022-10-14T02:25:48.074Z,10.21
2022-10-14T02:28:56.138Z,10.26
2022-10-14T02:32:03.386Z,10.28
2022-10-14T02:35:12.763Z,10.30
2022-10-14T02:38:20.450Z,10.31
2022-10-14T02:41:32.210Z,10.32
2022-10-14T02:44:38.479Z,10.29
2022-10-14T02:47:44.656Z,10.26
2022-10-14T02:50:50.847Z,10.23
2022-10-14T02:53:57.611Z,10.24
2022-10-14T02:57:03.828Z,10.27
2022-10-14T03:00:12.106Z,10.30
2022-10-14T03:03:18.377Z,10.31
2022-10-14T03:06:24.682Z,10.33
2022-10-14T03:09:29.231Z,10.35
2022-10-14T03:12:35.956Z,10.33
2022-10-14T03:15:42.000Z,10.36
2022-10-14T03:18:48.127Z,10.37
2022-10-14T03:21:54.153Z,10.38
2022-10-14T03:25:00.284Z,10.38
2022-10-14T03:28:06.872Z,10.40
2022-10-14T03:31:12.992Z,10.39
2022-10-14T03:34:19.114Z,10.41
2022-10-14T03:37:25.331Z,10.42
2022-10-14T03:40:31.764Z,10.44
2022-10-14T03:43:37.894Z,10.46
2022-10-14T03:46:43.951Z,10.48
2022-10-14T03:49:49.955Z,10.51
2022-10-14T03:52:56.118Z,10.52
2022-10-14T03:56:02.226Z,10.52
2022-10-14T03:59:08.986Z,10.51
2022-10-14T04:02:15.076Z,10.51
2022-10-14T04:05:21.183Z,10.47
2022-10-14T04:08:27.436Z,10.45
2022-10-14T04:11:33.678Z,10.43
2022-10-14T04:14:39.837Z,10.42
2022-10-14T04:17:45.871Z,10.43
2022-10-14T04:20:51.999Z,10.43
2022-10-14T04:23:58.126Z,10.44
2022-10-14T04:27:04.277Z,10.43
2022-10-14T04:30:12.704Z,10.42
2022-10-14T04:33:18.865Z,10.40
2022-10-14T04:36:24.963Z,10.40
2022-10-14T04:39:31.291Z,10.40
2022-10-14T04:42:35.767Z,10.42
2022-10-14T04:45:42.707Z,10.40
2022-10-14T04:48:50.365Z,10.43
2022-10-14T04:51:56.809Z,10.43
2022-10-14T04:55:03.498Z,10.43
2022-10-14T04:58:09.654Z,10.43
2022-10-14T05:01:15.821Z,10.42
2022-10-14T05:04:21.935Z,10.42
2022-10-14T05:07:28.241Z,10.43
2022-10-14T05:10:32.688Z,10.45
2022-10-14T05:13:39.056Z,10.44
2022-10-14T05:16:43.662Z,10.48
2022-10-14T05:19:49.833Z,10.48
2022-10-14T05:22:56.001Z,10.53
2022-10-14T05:26:02.137Z,10.57
2022-10-14T05:29:08.419Z,10.61
2022-10-14T05:32:12.975Z,10.65
2022-10-14T05:35:34.032Z,10.66
2022-10-14T05:38:45.751Z,10.72
2022-10-14T05:41:50.381Z,10.76
2022-10-14T05:44:56.592Z,10.78
2022-10-14T05:48:02.798Z,10.85
2022-10-14T05:51:09.218Z,10.92
2022-10-14T05:54:15.713Z,10.97
2022-10-14T05:57:21.817Z,11.05
2022-10-14T06:00:27.948Z,11.11
2022-10-14T06:03:34.359Z,11.17
2022-10-14T06:06:40.483Z,11.23
2022-10-14T06:09:46.532Z,11.28
2022-10-14T06:12:52.631Z,11.33
2022-10-14T06:15:58.768Z,11.39
2022-10-14T06:19:04.863Z,11.43
2022-10-14T06:22:11.020Z,11.48
2022-10-14T06:25:17.279Z,11.54
2022-10-14T06:28:21.765Z,11.59
2022-10-14T06:31:32.127Z,11.62
2022-10-14T06:34:38.829Z,11.71
2022-10-14T06:37:47.984Z,11.79
2022-10-14T06:40:55.520Z,11.88
2022-10-14T06:44:01.672Z,11.98
2022-10-14T06:47:09.034Z,12.09
2022-10-14T06:50:15.632Z,12.18
2022-10-14T06:53:21.887Z,12.29
2022-10-14T06:56:28.156Z,12.38
2022-10-14T06:59:32.692Z,12.46
2022-10-14T07:02:39.956Z,12.50
2022-10-14T07:05:46.110Z,12.58
2022-10-14T07:08:52.369Z,12.66
2022-10-14T07:11:56.813Z,12.73
2022-10-14T07:15:05.147Z,12.76
2022-10-14T07:18:11.547Z,12.84
2022-10-14T07:21:16.040Z,12.92
2022-10-14T07:24:22.191Z,12.94
2022-10-14T07:27:28.408Z,12.98
2022-10-14T07:30:34.611Z,13.03
2022-10-14T07:33:42.223Z,13.08
2022-10-14T07:36:48.462Z,13.15
2022-10-14T07:39:54.536Z,13.22
2022-10-14T07:43:00.642Z,13.25
2022-10-14T07:46:08.432Z,13.29
2022-10-14T07:49:16.942Z,13.34
2022-10-14T07:52:23.622Z,13.40
2022-10-14T07:55:29.728Z,13.47
2022-10-14T07:58:37.493Z,13.55
2022-10-14T08:01:47.022Z,13.65
2022-10-14T08:05:13.191Z,13.76
2022-10-14T08:08:24.408Z,13.88
2022-10-14T08:11:31.148Z,13.99
2022-10-14T08:14:37.303Z,14.12
2022-10-14T08:17:41.798Z,14.26
2022-10-14T08:20:47.918Z,14.38
2022-10-14T08:23:55.074Z,14.58
2022-10-14T08:27:01.223Z,14.78
2022-10-14T08:30:10.305Z,15.00
2022-10-14T08:33:17.627Z,15.18
2022-10-14T08:36:24.373Z,15.41
2022-10-14T08:39:30.600Z,15.61
2022-10-14T08:42:41.271Z,15.82
2022-10-14T08:45:54.357Z,15.99
2022-10-14T08:49:08.922Z,16.23
2022-10-14T08:52:18.696Z,16.46
2022-10-14T08:55:34.497Z,16.67
2022-10-14T08:58:43.689Z,16.89
2022-10-14T09:01:58.388Z,17.12
2022-10-14T09:05:05.137Z,17.34
2022-10-14T09:08:17.086Z,17.55
2022-10-14T09:11:25.309Z,17.76
2022-10-14T09:14:37.652Z,17.96
2022-10-14T09:17:50.375Z,18.17
2022-10-14T09:20:57.965Z,18.34
2022-10-14T09:24:13.478Z,18.50
2022-10-14T09:27:22.087Z,18.68
2022-10-14T09:30:32.331Z,18.87
2022-10-14T09:33:42.259Z,19.04
2022-10-14T09:40:04.181Z,19.26
2022-10-14T09:43:18.271Z,18.87
2022-10-14T09:46:24.647Z,18.41
2022-10-14T09:49:40.465Z,18.10
2022-10-14T09:52:44.970Z,17.90
2022-10-14T09:55:55.574Z,17.75
2022-10-14T09:59:03.099Z,17.68
2022-10-14T10:02:22.129Z,17.72
2022-10-14T10:05:30.613Z,18.20
2022-10-14T10:08:38.673Z,18.63
2022-10-14T10:11:44.752Z,18.92
2022-10-14T10:14:57.415Z,18.69
2022-10-14T10:18:19.434Z,18.37
2022-10-14T10:21:29.893Z,18.22
2022-10-14T10:24:36.063Z,18.27
2022-10-14T10:27:45.922Z,18.78
2022-10-14T10:31:05.701Z,19.17
2022-10-14T10:34:34.797Z,18.95
2022-10-14T10:37:50.573Z,18.64
2022-10-14T10:41:03.465Z,18.47
2022-10-14T10:44:36.447Z,18.35
2022-10-14T10:47:51.378Z,18.43
2022-10-14T10:51:01.943Z,18.96
2022-10-14T10:54:21.990Z,19.31
2022-10-14T10:57:42.843Z,19.11
2022-10-14T11:00:55.731Z,18.91
2022-10-14T11:04:18.272Z,18.78
2022-10-14T11:07:49.942Z,18.69
2022-10-14T11:11:19.887Z,18.63
2022-10-14T11:14:50.650Z,18.60
2022-10-14T11:18:03.554Z,18.56
2022-10-14T11:21:22.057Z,18.53
2022-10-14T11:24:37.422Z,18.50
2022-10-14T11:27:50.325Z,18.58
2022-10-14T11:31:02.518Z,19.16
2022-10-14T11:34:29.772Z,19.62
2022-10-14T11:37:48.524Z,19.85
2022-10-14T11:41:02.880Z,19.56
2022-10-14T11:44:16.725Z,19.30
2022-10-14T11:47:26.957Z,19.16
2022-10-14T11:50:39.418Z,19.09
2022-10-14T11:53:55.900Z,19.15
2022-10-14T11:57:06.162Z,19.68
2022-10-14T12:00:18.759Z,20.05
2022-10-14T12:03:37.773Z,19.85
2022-10-14T12:06:48.435Z,19.59
2022-10-14T12:10:00.081Z,19.43
2022-10-14T12:13:11.836Z,19.29
2022-10-14T12:16:21.327Z,19.17
2022-10-14T12:19:29.827Z,19.06
2022-10-14T12:22:36.879Z,18.95
2022-10-14T12:25:56.747Z,18.82
2022-10-14T12:29:04.169Z,18.69
2022-10-14T12:32:21.471Z,18.60
2022-10-14T12:35:51.920Z,18.55
2022-10-14T12:39:28.658Z,18.68
2022-10-14T12:42:36.611Z,19.34
2022-10-14T12:45:52.475Z,19.78
2022-10-14T12:48:59.850Z,20.00
2022-10-14T12:52:08.855Z,19.74
2022-10-14T12:55:20.105Z,19.49
2022-10-14T12:58:35.974Z,19.32
2022-10-14T13:01:45.919Z,19.17
2022-10-14T13:04:54.939Z,19.05
2022-10-14T13:08:27.006Z,18.92
2022-10-14T13:11:33.068Z,18.77
2022-10-14T13:14:59.735Z,18.64
2022-10-14T13:18:37.339Z,18.50
2022-10-14T13:21:56.184Z,18.54
2022-10-14T13:25:12.391Z,19.05
2022-10-14T13:28:28.967Z,19.38
2022-10-14T13:31:44.771Z,19.51
2022-10-14T13:34:53.022Z,19.57
2022-10-14T13:38:03.353Z,19.51
2022-10-14T13:41:16.378Z,19.49
2022-10-14T13:44:23.104Z,19.44
2022-10-14T13:47:29.517Z,19.42
2022-10-14T13:50:39.465Z,19.38
2022-10-14T13:53:55.174Z,19.36
2022-10-14T13:57:42.722Z,19.33
2022-10-14T14:00:41.494Z,19.31
2022-10-14T14:03:52.183Z,19.32
2022-10-14T14:07:24.452Z,19.30
2022-10-14T14:10:26.568Z,19.24
2022-10-14T14:13:34.943Z,19.20
2022-10-14T14:16:49.582Z,19.18
2022-10-14T14:19:57.395Z,19.13
2022-10-14T14:23:04.978Z,19.03
2022-10-14T14:26:19.055Z,18.95
2022-10-14T14:29:29.379Z,18.87
2022-10-14T14:32:37.727Z,18.87
2022-10-14T14:35:51.850Z,18.87
2022-10-14T14:38:59.564Z,18.86
2022-10-14T14:42:05.714Z,18.84
2022-10-14T14:45:18.099Z,18.82
2022-10-14T14:48:24.604Z,18.79
2022-10-14T14:51:35.111Z,18.78
2022-10-14T14:54:47.312Z,18.76
2022-10-14T14:58:01.856Z,18.76
2022-10-14T15:01:08.816Z,18.75
2022-10-14T15:04:19.531Z,18.72
2022-10-14T15:07:27.215Z,18.69
2022-10-14T15:10:33.753Z,18.65
2022-10-14T15:13:53.415Z,18.62
2022-10-14T15:17:00.165Z,18.61
2022-10-14T15:20:30.036Z,18.60
2022-10-14T15:24:00.533Z,18.60
2022-10-14T15:27:34.990Z,18.60
2022-10-14T15:30:55.767Z,18.57
2022-10-14T15:34:02.090Z,18.53
2022-10-14T15:37:12.342Z,18.49
2022-10-14T15:40:21.067Z,18.47
2022-10-14T15:43:28.749Z,18.45
2022-10-14T15:46:54.061Z,18.42
2022-10-14T15:50:00.519Z,18.37
2022-10-14T15:53:06.620Z,18.32
2022-10-14T15:56:11.541Z,18.27
2022-10-14T15:59:18.885Z,18.19
2022-10-14T16:02:30.384Z,18.11
2022-10-14T16:05:36.856Z,18.03
2022-10-14T16:08:43.558Z,17.95
2022-10-14T16:11:57.412Z,17.91
2022-10-14T16:18:14.936Z,17.86
2022-10-14T16:21:19.380Z,17.82
2022-10-14T16:24:26.812Z,17.75
2022-10-14T16:27:32.875Z,17.74
2022-10-14T16:30:37.479Z,17.72
2022-10-14T16:33:45.712Z,17.66
2022-10-14T16:36:52.755Z,17.64
2022-10-14T16:39:58.926Z,17.61
2022-10-14T16:43:05.050Z,17.58
2022-10-14T16:46:11.939Z,17.57
2022-10-14T16:49:21.060Z,17.53
2022-10-14T16:52:27.177Z,17.54
2022-10-14T16:55:32.021Z,17.53
2022-10-14T16:58:38.128Z,17.50
2022-10-14T17:01:44.489Z,17.50
2022-10-14T17:04:51.520Z,17.49
2022-10-14T17:07:57.650Z,17.46
2022-10-14T17:11:02.110Z,17.44
2022-10-14T17:14:08.417Z,17.39
2022-10-14T17:17:14.797Z,17.37
2022-10-14T17:20:22.120Z,17.33
2022-10-14T17:23:29.520Z,17.31
2022-10-14T17:26:36.535Z,17.28
2022-10-14T17:29:42.683Z,17.25
2022-10-14T17:32:47.190Z,17.22
2022-10-14T17:35:59.761Z,17.15
2022-10-14T17:39:06.170Z,17.14
2022-10-14T17:42:12.408Z,17.11
2022-10-14T17:45:19.727Z,17.07
2022-10-14T17:48:25.782Z,17.06
2022-10-14T17:51:30.341Z,17.05
2022-10-14T17:54:36.446Z,17.02
2022-10-14T17:57:41.001Z,17.03
2022-10-14T18:00:47.152Z,17.00
2022-10-14T18:03:51.809Z,17.01
2022-10-14T18:06:58.679Z,16.97
2022-10-14T18:10:04.934Z,16.96
2022-10-14T18:13:11.111Z,16.94
2022-10-14T18:16:17.510Z,16.91
2022-10-14T18:19:23.639Z,16.89
2022-10-14T18:22:28.265Z,16.87
2022-10-14T18:25:38.050Z,16.80
2022-10-14T18:28:45.912Z,16.79
2022-10-14T18:31:53.120Z,16.79
2022-10-14T18:34:59.211Z,16.78
2022-10-14T18:38:05.313Z,16.77
2022-10-14T18:41:14.445Z,16.75
2022-10-14T18:44:20.791Z,16.71
2022-10-14T18:47:27.210Z,16.70
2022-10-14T18:50:33.261Z,16.70
2022-10-14T18:53:41.676Z,16.70
2022-10-14T18:56:48.873Z,16.69
2022-10-14T18:59:55.033Z,16.68
2022-10-14T19:02:59.656Z,16.69
2022-10-14T19:06:06.902Z,16.66
2022-10-14T19:09:13.986Z,16.70
2022-10-14T19:12:34.043Z,16.72
2022-10-14T19:15:45.408Z,16.71
2022-10-14T19:18:57.079Z,16.71
2022-10-14T19:22:03.456Z,16.72
2022-10-14T19:25:08.831Z,16.74
2022-10-14T19:28:14.885Z,16.71
2022-10-14T19:31:25.043Z,16.74
2022-10-14T19:34:31.620Z,16.75
2022-10-14T19:37:37.939Z,16.74
2022-10-14T19:40:43.991Z,16.74
2022-10-14T19:43:50.303Z,16.70
2022-10-14T19:46:56.540Z,16.67
2022-10-14T19:50:02.626Z,16.67
2022-10-14T19:53:07.185Z,16.66
2022-10-14T19:56:14.672Z,16.63
2022-10-14T19:59:21.397Z,16.65
2022-10-14T20:02:27.539Z,16.65
2022-10-14T20:05:32.650Z,16.65
2022-10-14T20:08:39.396Z,16.61
2022-10-14T20:11:45.946Z,16.63
2022-10-14T20:14:52.015Z,16.63
2022-10-14T20:17:56.569Z,16.61
2022-10-14T20:21:04.374Z,16.57
2022-10-14T20:24:10.884Z,16.56
2022-10-14T20:27:17.315Z,16.54
2022-10-14T20:30:23.552Z,16.53
2022-10-14T20:33:31.730Z,16.51
2022-10-14T20:36:37.924Z,16.51
2022-10-14T20:39:42.401Z,16.52
2022-10-14T20:42:48.627Z,16.49
2022-10-14T20:45:56.344Z,16.50
2022-10-14T20:49:03.185Z,16.49
2022-10-14T20:52:10.102Z,16.47
2022-10-14T20:55:16.090Z,16.44
2022-10-14T20:58:23.219Z,16.41
2022-10-14T21:01:30.776Z,16.39
2022-10-14T21:04:37.013Z,16.36
2022-10-14T21:07:41.642Z,16.35
2022-10-14T21:10:47.699Z,16.30
2022-10-14T21:13:55.828Z,16.30
2022-10-14T21:17:02.055Z,16.29
2022-10-14T21:20:09.891Z,16.28
2022-10-14T21:23:16.120Z,16.27
2022-10-14T21:26:22.151Z,16.25
2022-10-14T21:29:28.475Z,16.25
2022-10-14T21:32:34.686Z,16.22
2022-10-14T21:35:39.187Z,16.19
2022-10-14T21:38:45.473Z,16.14
2022-10-14T21:41:52.026Z,16.14
2022-10-14T21:44:58.299Z,16.13
2022-10-14T21:48:04.565Z,16.11
2022-10-14T21:51:13.310Z,16.10
2022-10-14T21:54:19.298Z,16.08
2022-10-14T21:57:25.714Z,16.05
2022-10-14T22:00:32.140Z,16.02
2022-10-14T22:03:39.189Z,15.99
2022-10-14T22:06:45.384Z,15.98
2022-10-14T22:09:49.936Z,15.97
2022-10-14T22:12:58.453Z,15.93
2022-10-14T22:16:05.039Z,15.95
2022-10-14T22:19:12.014Z,15.94
2022-10-14T22:22:18.050Z,15.93
2022-10-14T22:25:24.007Z,15.91
2022-10-14T22:28:30.834Z,15.87
2022-10-14T22:31:37.659Z,15.87
2022-10-14T22:34:45.312Z,15.88
2022-10-14T22:37:51.662Z,15.89
2022-10-14T22:41:01.507Z,15.89
2022-10-14T22:44:08.542Z,15.90
2022-10-14T22:47:14.609Z,15.91
2022-10-14T22:50:20.892Z,15.91
2022-10-14T22:53:25.445Z,15.92
2022-10-14T22:56:32.942Z,15.89
2022-10-14T22:59:39.332Z,15.91
2022-10-14T23:02:46.481Z,15.92
2022-10-14T23:05:52.765Z,15.92
2022-10-14T23:09:00.464Z,15.90
2022-10-14T23:12:07.161Z,15.90
2022-10-14T23:15:13.845Z,15.90
2022-10-14T23:18:19.964Z,15.90
2022-10-14T23:21:25.250Z,15.90
2022-10-14T23:24:31.650Z,15.86
2022-10-14T23:27:37.903Z,15.87
2022-10-14T23:30:44.181Z,15.87
2022-10-14T23:33:49.241Z,15.87
2022-10-14T23:40:06.961Z,15.84
2022-10-14T23:43:13.028Z,15.84
2022-10-14T23:46:19.098Z,15.83
2022-10-14T23:49:26.439Z,15.82
2022-10-14T23:52:32.924Z,15.80
2022-10-14T23:55:37.355Z,15.76
2022-10-14T23:58:43.467Z,15.69
